createdAt,value
2022-11-29T00:01:46.884Z,64.30
2022-11-29T00:04:22.981Z,67.80
2022-11-29T00:06:50.927Z,73.30
2022-11-29T00:09:24.922Z,60.00
2022-11-29T00:12:11.295Z,64.00
2022-11-29T00:14:39.815Z,59.20
2022-11-29T00:17:07.888Z,65.00
2022-11-29T00:19:41.430Z,65.50
2022-11-29T00:22:19.493Z,70.70
2022-11-29T00:24:54.420Z,66.20
2022-11-29T00:27:22.391Z,56.20
2022-11-29T00:29:50.510Z,58.90
2022-11-29T00:32:18.501Z,54.90
2022-11-29T00:34:46.523Z,54.00
2022-11-29T00:37:15.973Z,72.90
2022-11-29T00:39:43.865Z,59.00
2022-11-29T00:42:11.794Z,60.10
2022-11-29T00:44:39.784Z,62.80
2022-11-29T00:47:07.633Z,59.00
2022-11-29T00:49:35.539Z,54.90
2022-11-29T00:52:03.599Z,53.70
2022-11-29T00:54:33.938Z,52.00
2022-11-29T00:57:02.975Z,52.30
2022-11-29T00:59:30.953Z,56.30
2022-11-29T01:01:58.850Z,59.10
2022-11-29T01:04:26.870Z,57.30
2022-11-29T01:06:54.800Z,57.30
2022-11-29T01:09:22.704Z,50.60
2022-11-29T01:11:50.805Z,52.50
2022-11-29T01:14:18.727Z,50.80
2022-11-29T01:16:46.655Z,51.40
2022-11-29T01:19:14.615Z,52.90
2022-11-29T01:21:42.519Z,53.90
2022-11-29T01:24:10.495Z,54.40
2022-11-29T01:26:38.416Z,55.60
2022-11-29T01:29:06.328Z,50.50
2022-11-29T01:31:38.014Z,46.70
2022-11-29T01:34:07.262Z,46.80
2022-11-29T01:36:35.444Z,47.70
2022-11-29T01:39:04.934Z,51.00
2022-11-29T01:41:35.963Z,50.50
2022-11-29T01:44:06.115Z,51.90
2022-11-29T01:46:40.429Z,45.50
2022-11-29T01:49:13.266Z,48.90
2022-11-29T01:51:45.922Z,36.70
2022-11-29T01:54:14.697Z,47.70
2022-11-29T01:56:45.292Z,50.00
2022-11-29T01:59:15.845Z,49.00
2022-11-29T02:01:43.810Z,49.10
2022-11-29T02:04:12.261Z,50.80
2022-11-29T02:06:41.579Z,49.50
2022-11-29T02:09:21.892Z,46.00
2022-11-29T02:12:08.349Z,44.40
2022-11-29T02:14:45.558Z,45.70
2022-11-29T02:17:32.211Z,49.40
2022-11-29T02:20:05.798Z,47.30
2022-11-29T02:22:43.984Z,48.20
2022-11-29T02:25:38.099Z,50.20
2022-11-29T02:28:33.010Z,48.90
2022-11-29T02:31:38.283Z,47.30
2022-11-29T02:34:12.120Z,45.10
2022-11-29T02:37:11.650Z,51.70
2022-11-29T02:40:06.788Z,50.40
2022-11-29T02:42:55.688Z,48.80
2022-11-29T02:45:36.134Z,50.20
2022-11-29T02:48:34.937Z,49.50
2022-11-29T02:51:11.473Z,46.50
2022-11-29T02:54:00.288Z,47.80
2022-11-29T02:56:52.428Z,46.70
2022-11-29T02:59:45.164Z,45.60
2022-11-29T03:02:36.005Z,49.80
2022-11-29T03:05:12.116Z,54.00
2022-11-29T03:07:56.659Z,50.00
2022-11-29T03:10:35.217Z,49.10
2022-11-29T03:13:10.347Z,45.10
2022-11-29T03:16:08.694Z,44.80
2022-11-29T03:19:15.583Z,47.30
2022-11-29T03:22:02.159Z,48.80
2022-11-29T03:24:37.215Z,46.50
2022-11-29T03:27:12.352Z,43.80
2022-11-29T03:29:47.865Z,43.00
2022-11-29T03:32:38.621Z,39.10
2022-11-29T03:35:13.376Z,41.40
2022-11-29T03:37:58.621Z,39.50
2022-11-29T03:40:39.064Z,43.90
2022-11-29T03:43:14.274Z,41.60
2022-11-29T03:46:33.116Z,47.10
2022-11-29T03:49:31.434Z,43.20
2022-11-29T03:52:08.509Z,38.20
2022-11-29T03:55:13.839Z,40.10
2022-11-29T03:57:41.691Z,41.20
2022-11-29T04:00:13.542Z,43.50
2022-11-29T04:03:22.240Z,42.90
2022-11-29T04:06:02.266Z,37.60
2022-11-29T04:08:42.139Z,36.70
2022-11-29T04:11:32.509Z,38.70
2022-11-29T04:14:30.917Z,38.80
2022-11-29T04:17:17.440Z,41.40
2022-11-29T04:19:45.300Z,42.80
2022-11-29T04:22:43.773Z,40.10
2022-11-29T04:25:55.469Z,41.10
2022-11-29T04:28:37.290Z,38.40
2022-11-29T04:31:23.388Z,40.50
2022-11-29T04:34:28.234Z,40.90
2022-11-29T04:37:33.226Z,43.20
2022-11-29T04:40:16.294Z,45.00
2022-11-29T04:43:02.129Z,45.70
2022-11-29T04:45:48.695Z,51.10
2022-11-29T04:48:53.730Z,47.40
2022-11-29T04:51:35.345Z,41.10
2022-11-29T04:54:19.359Z,45.70
2022-11-29T04:57:02.105Z,48.30
2022-11-29T05:00:06.376Z,65.80
2022-11-29T05:02:42.930Z,57.40
2022-11-29T05:05:22.788Z,70.30
2022-11-29T05:07:56.615Z,50.80
2022-11-29T05:10:41.868Z,49.60
2022-11-29T05:13:22.298Z,51.20
2022-11-29T05:16:20.804Z,50.00
2022-11-29T05:19:07.529Z,53.20
2022-11-29T05:21:47.526Z,56.40
2022-11-29T05:24:49.743Z,60.00
2022-11-29T05:27:52.483Z,57.00
2022-11-29T05:30:25.675Z,60.90
2022-11-29T05:33:08.578Z,61.00
2022-11-29T05:35:51.595Z,60.00
2022-11-29T05:38:34.568Z,59.10
2022-11-29T05:41:36.418Z,63.60
2022-11-29T05:44:22.639Z,58.40
2022-11-29T05:46:56.745Z,59.80
2022-11-29T05:50:01.834Z,61.00
2022-11-29T05:52:35.635Z,58.70
2022-11-29T05:55:37.361Z,56.30
2022-11-29T05:58:34.935Z,60.00
2022-11-29T06:01:16.850Z,65.90
2022-11-29T06:04:14.813Z,57.00
2022-11-29T06:06:50.578Z,59.70
2022-11-29T06:09:42.466Z,61.20
2022-11-29T06:12:20.776Z,64.10
2022-11-29T06:15:04.415Z,64.60
2022-11-29T06:17:52.812Z,64.20
2022-11-29T06:20:52.221Z,61.50
2022-11-29T06:23:31.489Z,58.50
2022-11-29T06:26:10.430Z,57.70
2022-11-29T06:28:56.154Z,51.60
2022-11-29T06:31:29.869Z,53.80
2022-11-29T06:34:10.224Z,63.20
2022-11-29T06:37:08.757Z,64.70
2022-11-29T06:39:36.904Z,53.70
2022-11-29T06:42:04.927Z,50.40
2022-11-29T06:44:33.079Z,52.70
2022-11-29T06:47:14.911Z,48.10
2022-11-29T06:50:01.273Z,48.80
2022-11-29T06:52:38.086Z,52.00
2022-11-29T06:55:17.904Z,58.40
2022-11-29T06:58:04.029Z,70.90
2022-11-29T07:00:42.081Z,63.00
2022-11-29T07:03:37.233Z,63.40
2022-11-29T07:06:15.442Z,49.80
2022-11-29T07:08:43.784Z,56.00
2022-11-29T07:11:14.162Z,56.30
2022-11-29T07:13:42.282Z,55.40
2022-11-29T07:16:34.428Z,50.30
2022-11-29T07:19:08.474Z,46.50
2022-11-29T07:21:48.601Z,47.20
2022-11-29T07:24:34.137Z,44.50
2022-11-29T07:27:23.211Z,47.70
2022-11-29T07:30:19.182Z,51.00
2022-11-29T07:33:02.236Z,57.10
2022-11-29T07:36:15.237Z,58.60
2022-11-29T07:38:55.062Z,59.20
2022-11-29T07:41:41.587Z,57.30
2022-11-29T07:44:25.520Z,54.20
2022-11-29T07:46:53.436Z,56.90
2022-11-29T07:49:21.402Z,53.10
2022-11-29T07:51:49.532Z,62.00
2022-11-29T07:54:19.813Z,68.80
2022-11-29T07:56:47.751Z,70.70
2022-11-29T07:59:15.678Z,63.20
2022-11-29T08:01:43.580Z,63.30
2022-11-29T08:04:11.510Z,60.40
2022-11-29T08:06:39.636Z,57.60
2022-11-29T08:09:07.750Z,52.60
2022-11-29T08:11:35.715Z,54.40
2022-11-29T08:14:05.187Z,59.10
2022-11-29T08:16:33.274Z,59.50
2022-11-29T08:19:01.268Z,57.10
2022-11-29T08:21:29.193Z,54.00
2022-11-29T08:23:57.101Z,50.80
2022-11-29T08:26:29.818Z,48.70
2022-11-29T08:28:59.271Z,48.70
2022-11-29T08:31:33.787Z,51.10
2022-11-29T08:36:42.660Z,52.70
2022-11-29T08:39:18.620Z,51.60
2022-11-29T08:41:46.766Z,47.00
2022-11-29T08:44:19.389Z,46.00
2022-11-29T08:47:05.545Z,43.60
2022-11-29T08:49:33.541Z,47.50
2022-11-29T08:52:20.058Z,45.80
2022-11-29T08:54:48.296Z,47.80
2022-11-29T08:57:39.223Z,48.90
2022-11-29T09:00:10.649Z,48.70
2022-11-29T09:02:39.326Z,45.30
2022-11-29T09:05:13.058Z,43.50
2022-11-29T09:07:50.799Z,47.40
2022-11-29T09:10:26.255Z,51.10
2022-11-29T09:12:59.064Z,50.80
2022-11-29T09:15:32.743Z,50.30
2022-11-29T09:18:00.700Z,49.60
2022-11-29T09:20:28.660Z,46.90
2022-11-29T09:22:58.990Z,46.40
2022-11-29T09:25:27.154Z,49.10
2022-11-29T09:27:58.211Z,52.10
2022-11-29T09:30:26.575Z,54.40
2022-11-29T09:32:54.560Z,49.30
2022-11-29T09:35:22.447Z,48.20
2022-11-29T09:37:50.458Z,46.20
2022-11-29T09:40:21.269Z,44.80
2022-11-29T09:43:22.335Z,52.00
2022-11-29T09:45:57.455Z,52.40
2022-11-29T09:48:32.576Z,52.70
2022-11-29T09:51:08.738Z,53.20
2022-11-29T09:53:46.435Z,45.60
2022-11-29T09:56:49.544Z,46.90
2022-11-29T09:59:23.735Z,47.00
2022-11-29T10:02:18.391Z,48.10
2022-11-29T10:05:02.653Z,46.20
2022-11-29T10:07:39.308Z,44.00
2022-11-29T10:10:15.705Z,44.70
2022-11-29T10:12:52.089Z,46.10
2022-11-29T10:15:22.635Z,46.20
2022-11-29T10:18:01.138Z,50.20
2022-11-29T10:20:36.508Z,52.10
2022-11-29T10:23:33.134Z,50.10
2022-11-29T10:26:01.211Z,47.00
2022-11-29T10:28:32.835Z,43.10
2022-11-29T10:31:22.491Z,44.90
2022-11-29T10:33:50.853Z,46.40
2022-11-29T10:36:29.732Z,48.80
2022-11-29T10:39:01.674Z,44.00
2022-11-29T10:41:29.693Z,45.00
2022-11-29T10:43:59.889Z,42.80
2022-11-29T10:46:31.522Z,47.70
2022-11-29T10:49:05.238Z,47.70
2022-11-29T10:51:34.013Z,53.00
2022-11-29T10:54:41.884Z,51.60
2022-11-29T10:57:15.480Z,52.50
2022-11-29T11:00:08.813Z,52.40
2022-11-29T11:02:37.560Z,44.40
2022-11-29T11:05:18.955Z,48.50
2022-11-29T11:07:57.261Z,48.50
2022-11-29T11:10:29.749Z,52.00
2022-11-29T11:13:07.095Z,51.50
2022-11-29T11:15:35.166Z,45.60
2022-11-29T11:18:06.799Z,44.20
2022-11-29T11:20:41.911Z,43.30
2022-11-29T11:23:27.429Z,48.10
2022-11-29T11:26:05.910Z,50.70
2022-11-29T11:28:42.555Z,43.60
2022-11-29T11:31:12.636Z,45.20
2022-11-29T11:33:41.617Z,44.60
2022-11-29T11:36:27.459Z,47.80
2022-11-29T11:38:58.437Z,49.50
2022-11-29T11:41:49.422Z,54.60
2022-11-29T11:44:52.594Z,49.50
2022-11-29T11:47:29.873Z,46.20
2022-11-29T11:50:00.710Z,45.80
2022-11-29T11:52:53.395Z,47.50
2022-11-29T11:55:21.490Z,46.30
2022-11-29T11:58:13.888Z,46.60
2022-11-29T12:01:03.904Z,48.50
2022-11-29T12:04:10.388Z,49.90
2022-11-29T12:06:52.316Z,49.00
2022-11-29T12:09:35.410Z,50.60
2022-11-29T12:12:10.128Z,47.90
2022-11-29T12:14:55.792Z,52.50
2022-11-29T12:17:34.511Z,46.70
2022-11-29T12:20:41.004Z,47.20
2022-11-29T12:23:09.062Z,50.50
2022-11-29T12:25:56.068Z,46.80
2022-11-29T12:28:34.393Z,44.80
2022-11-29T12:31:19.263Z,44.50
2022-11-29T12:34:24.484Z,41.60
2022-11-29T12:37:20.165Z,40.30
2022-11-29T12:40:11.802Z,39.80
2022-11-29T12:42:54.905Z,39.10
2022-11-29T12:45:25.907Z,45.10
2022-11-29T12:47:53.819Z,41.70
2022-11-29T12:50:21.755Z,40.70
2022-11-29T12:53:14.524Z,41.10
2022-11-29T12:55:58.986Z,41.90
2022-11-29T12:58:51.653Z,42.70
2022-11-29T13:01:47.993Z,46.20
2022-11-29T13:04:49.278Z,43.40
2022-11-29T13:07:26.452Z,47.20
2022-11-29T13:10:35.902Z,47.50
2022-11-29T13:13:25.405Z,47.90
2022-11-29T13:19:39.309Z,53.10
2022-11-29T13:22:22.365Z,62.10
2022-11-29T13:24:57.686Z,60.40
2022-11-29T13:27:32.260Z,61.20
2022-11-29T13:30:01.032Z,57.50
2022-11-29T13:32:35.260Z,53.10
2022-11-29T13:35:19.208Z,60.70
2022-11-29T13:37:57.382Z,64.50
2022-11-29T13:40:46.811Z,67.10
2022-11-29T13:43:17.758Z,64.90
2022-11-29T13:45:48.491Z,61.90
2022-11-29T13:48:28.409Z,59.70
2022-11-29T13:50:57.757Z,56.50
2022-11-29T13:53:45.254Z,61.80
2022-11-29T13:56:48.595Z,58.10
2022-11-29T13:59:27.723Z,73.80
2022-11-29T14:01:57.117Z,57.80
2022-11-29T14:04:27.661Z,54.60
2022-11-29T14:07:12.571Z,62.40
2022-11-29T14:12:27.075Z,62.60
2022-11-29T14:15:16.712Z,63.10
2022-11-29T14:17:53.777Z,62.50
2022-11-29T14:20:30.457Z,59.30
2022-11-29T14:23:04.638Z,60.00
2022-11-29T14:25:51.265Z,61.40
2022-11-29T14:28:22.908Z,56.10
2022-11-29T14:30:55.018Z,60.00
2022-11-29T14:33:37.340Z,54.50
2022-11-29T14:36:23.728Z,55.40
2022-11-29T14:39:04.461Z,62.00
2022-11-29T14:42:01.537Z,60.20
2022-11-29T14:44:32.076Z,57.70
2022-11-29T14:47:26.560Z,59.80
2022-11-29T14:49:57.018Z,61.40
2022-11-29T14:52:29.126Z,50.60
2022-11-29T14:55:20.402Z,48.00
2022-11-29T14:57:48.435Z,48.40
2022-11-29T15:00:19.234Z,48.80
2022-11-29T15:03:21.335Z,50.70
2022-11-29T15:05:57.691Z,52.40
2022-11-29T15:08:35.721Z,61.00
2022-11-29T15:11:32.187Z,54.60
2022-11-29T15:14:07.459Z,55.70
2022-11-29T15:17:19.605Z,50.20
2022-11-29T15:20:22.117Z,51.50
2022-11-29T15:22:55.484Z,54.70
2022-11-29T15:25:26.396Z,64.90
2022-11-29T15:28:06.144Z,60.60
2022-11-29T15:30:39.560Z,57.00
2022-11-29T15:33:19.325Z,52.90
2022-11-29T15:36:08.667Z,52.30
2022-11-29T15:38:50.616Z,69.60
2022-11-29T15:41:35.658Z,64.00
2022-11-29T15:44:06.993Z,51.50
2022-11-29T15:46:35.866Z,50.50
2022-11-29T15:49:31.179Z,49.80
2022-11-29T15:54:38.900Z,49.00
2022-11-29T15:57:16.024Z,48.30
2022-11-29T15:59:53.737Z,50.80
2022-11-29T16:02:31.362Z,55.70
2022-11-29T16:05:25.223Z,52.90
2022-11-29T16:07:57.591Z,51.50
2022-11-29T16:10:52.722Z,49.70
2022-11-29T16:13:39.122Z,46.10
2022-11-29T16:16:13.439Z,50.50
2022-11-29T16:18:44.262Z,55.10
2022-11-29T16:21:25.237Z,56.90
2022-11-29T16:23:54.045Z,56.40
2022-11-29T16:26:35.955Z,54.30
2022-11-29T16:29:04.787Z,52.30
2022-11-29T16:31:35.701Z,54.50
2022-11-29T16:34:14.123Z,55.70
2022-11-29T16:36:42.159Z,50.90
2022-11-29T16:39:23.238Z,54.60
2022-11-29T16:42:08.869Z,51.60
2022-11-29T16:44:39.781Z,55.60
2022-11-29T16:47:18.810Z,58.10
2022-11-29T16:50:09.644Z,55.60
2022-11-29T16:52:37.567Z,58.00
2022-11-29T16:55:05.617Z,64.20
2022-11-29T16:57:33.849Z,64.20
2022-11-29T17:00:01.958Z,59.90
2022-11-29T17:02:30.245Z,67.50
2022-11-29T17:04:58.646Z,73.10
2022-11-29T17:07:32.147Z,70.50
2022-11-29T17:10:00.364Z,68.40
2022-11-29T17:12:28.276Z,65.50
2022-11-29T17:14:56.314Z,62.20
2022-11-29T17:17:24.226Z,64.30
2022-11-29T17:19:52.144Z,65.70
2022-11-29T17:22:20.103Z,67.70
2022-11-29T17:24:48.790Z,65.20
2022-11-29T17:27:16.865Z,68.30
2022-11-29T17:29:44.782Z,68.70
2022-11-29T17:32:12.741Z,69.10
2022-11-29T17:34:40.726Z,68.40
2022-11-29T17:37:08.626Z,69.70
2022-11-29T17:39:36.559Z,70.40
2022-11-29T17:42:04.554Z,66.20
2022-11-29T17:44:34.001Z,65.40
2022-11-29T17:47:01.890Z,63.80
2022-11-29T17:49:29.816Z,68.90
2022-11-29T17:51:57.756Z,63.20
2022-11-29T17:54:26.072Z,70.30
2022-11-29T17:56:54.299Z,63.30
2022-11-29T17:59:22.296Z,64.90
2022-11-29T18:01:50.246Z,63.70
2022-11-29T18:04:18.460Z,65.50
2022-11-29T18:06:50.267Z,62.70
2022-11-29T18:09:19.794Z,57.90
2022-11-29T18:11:49.975Z,70.70
2022-11-29T18:14:22.751Z,74.20
2022-11-29T18:16:52.084Z,78.40
2022-11-29T18:19:22.105Z,74.50
2022-11-29T18:21:50.569Z,71.60
2022-11-29T18:24:18.863Z,80.00
2022-11-29T18:26:47.210Z,96.00
2022-11-29T18:29:15.347Z,75.30
2022-11-29T18:31:45.227Z,70.40
2022-11-29T18:34:14.674Z,68.90
2022-11-29T18:36:48.549Z,71.40
2022-11-29T18:39:19.701Z,70.00
2022-11-29T18:41:49.537Z,65.00
2022-11-29T18:44:19.963Z,73.00
2022-11-29T18:46:48.107Z,69.50
2022-11-29T18:49:20.962Z,63.10
2022-11-29T18:51:49.984Z,61.80
2022-11-29T18:54:19.251Z,63.30
2022-11-29T18:56:50.180Z,69.90
2022-11-29T18:59:18.365Z,66.20
2022-11-29T19:01:48.551Z,65.00
2022-11-29T19:04:19.422Z,56.10
2022-11-29T19:06:48.259Z,54.80
2022-11-29T19:09:20.930Z,54.90
2022-11-29T19:11:52.195Z,56.00
2022-11-29T19:14:20.212Z,58.60
2022-11-29T19:16:50.870Z,57.60
2022-11-29T19:19:19.073Z,59.50
2022-11-29T19:21:47.885Z,56.50
2022-11-29T19:24:17.994Z,57.20
2022-11-29T19:26:48.131Z,56.90
2022-11-29T19:29:17.400Z,59.50
2022-11-29T19:31:45.451Z,61.60
2022-11-29T19:34:13.925Z,70.10
2022-11-29T19:36:43.730Z,70.70
2022-11-29T19:39:17.039Z,63.40
2022-11-29T19:41:47.046Z,59.60
2022-11-29T19:44:15.293Z,58.60
2022-11-29T19:46:48.823Z,60.10
2022-11-29T19:49:16.921Z,61.70
2022-11-29T19:51:44.872Z,62.40
2022-11-29T19:54:13.147Z,58.50
2022-11-29T19:56:41.157Z,58.50
2022-11-29T19:59:09.387Z,53.40
2022-11-29T20:01:42.675Z,55.90
2022-11-29T20:04:13.380Z,56.40
2022-11-29T20:06:41.834Z,58.50
2022-11-29T20:09:12.176Z,58.40
2022-11-29T20:11:40.107Z,52.30
2022-11-29T20:14:10.539Z,48.60
2022-11-29T20:16:39.263Z,49.40
2022-11-29T20:19:13.161Z,47.30
2022-11-29T20:21:47.812Z,45.00
2022-11-29T20:24:16.726Z,47.40
2022-11-29T20:26:46.824Z,49.70
2022-11-29T20:29:15.953Z,47.20
2022-11-29T20:31:50.043Z,47.00
2022-11-29T20:34:20.696Z,49.90
2022-11-29T20:37:43.614Z,46.50
2022-11-29T20:40:14.800Z,51.70
2022-11-29T20:43:15.898Z,52.40
2022-11-29T20:45:44.106Z,51.30
2022-11-29T20:48:22.893Z,59.20
2022-11-29T20:50:58.458Z,50.50
2022-11-29T20:53:35.673Z,53.00
2022-11-29T20:56:05.286Z,55.20
2022-11-29T20:58:33.463Z,58.80
2022-11-29T21:01:01.836Z,57.90
2022-11-29T21:03:30.296Z,56.50
2022-11-29T21:06:02.124Z,58.70
2022-11-29T21:08:30.219Z,58.40
2022-11-29T21:11:06.900Z,53.00
2022-11-29T21:13:35.266Z,57.20
2022-11-29T21:16:03.790Z,52.60
2022-11-29T21:18:32.441Z,50.50
2022-11-29T21:21:54.005Z,52.30
2022-11-29T21:24:34.185Z,53.50
2022-11-29T21:27:03.302Z,53.70
2022-11-29T21:29:31.528Z,50.50
2022-11-29T21:32:00.992Z,54.50
2022-11-29T21:34:30.639Z,59.10
2022-11-29T21:36:59.861Z,59.70
2022-11-29T21:39:33.873Z,55.30
2022-11-29T21:42:02.882Z,56.80
2022-11-29T21:44:30.892Z,56.90
2022-11-29T21:46:58.899Z,68.90
2022-11-29T21:49:26.812Z,76.10
2022-11-29T21:51:57.638Z,74.20
2022-11-29T21:54:25.964Z,65.80
2022-11-29T21:56:54.331Z,70.90
2022-11-29T21:59:24.917Z,55.60
2022-11-29T22:01:52.992Z,49.80
2022-11-29T22:04:21.095Z,50.40
2022-11-29T22:06:49.057Z,55.90
2022-11-29T22:09:17.119Z,54.30
2022-11-29T22:11:45.730Z,50.00
2022-11-29T22:14:18.932Z,51.30
2022-11-29T22:16:51.645Z,50.40
2022-11-29T22:19:21.941Z,48.80
2022-11-29T22:21:52.414Z,54.90
2022-11-29T22:24:22.973Z,51.30
2022-11-29T22:26:52.193Z,54.10
2022-11-29T22:29:20.736Z,51.50
2022-11-29T22:31:53.051Z,55.30
2022-11-29T22:34:22.854Z,58.20
2022-11-29T22:36:51.052Z,55.30
2022-11-29T22:39:19.006Z,53.80
2022-11-29T22:41:53.928Z,54.40
2022-11-29T22:46:51.579Z,55.00
2022-11-29T22:49:19.554Z,56.10
2022-11-29T22:51:47.536Z,59.30
2022-11-29T22:54:16.570Z,58.70
2022-11-29T22:56:45.558Z,58.10
2022-11-29T22:59:14.047Z,55.80
2022-11-29T23:01:42.514Z,51.60
2022-11-29T23:04:12.300Z,49.10
2022-11-29T23:06:45.480Z,54.40
2022-11-29T23:09:17.088Z,63.20
2022-11-29T23:11:46.162Z,64.10
2022-11-29T23:14:14.114Z,60.80
2022-11-29T23:16:42.868Z,55.20
2022-11-29T23:19:11.010Z,57.10
2022-11-29T23:21:40.716Z,57.20
2022-11-29T23:24:09.496Z,50.40
2022-11-29T23:26:40.483Z,55.10
2022-11-29T23:29:19.577Z,53.80
2022-11-29T23:31:49.229Z,53.00
2022-11-29T23:34:17.691Z,51.60
2022-11-29T23:36:51.164Z,49.30
2022-11-29T23:39:21.131Z,54.50
2022-11-29T23:41:49.023Z,54.70
2022-11-29T23:44:17.024Z,56.10
2022-11-29T23:46:44.860Z,58.30
2022-11-29T23:49:12.762Z,58.30
2022-11-29T23:51:40.705Z,58.30
2022-11-29T23:54:08.647Z,57.20
2022-11-29T23:56:36.524Z,57.90
2022-11-29T23:59:04.507Z,55.90
